createdAt,value
2019-01-13T00:00:46.908Z,2.33
2019-01-13T00:03:50.484Z,2.20
2019-01-13T00:06:53.992Z,2.57
2019-01-13T00:09:57.421Z,2.60
2019-01-13T00:13:00.820Z,3.13
2019-01-13T00:16:04.265Z,2.50
2019-01-13T00:19:07.680Z,2.50
2019-01-13T00:22:11.100Z,2.40
2019-01-13T00:25:14.520Z,1.87
2019-01-13T00:28:17.977Z,2.53
2019-01-13T00:31:21.384Z,2.50
2019-01-13T00:34:24.839Z,2.87
2019-01-13T00:37:28.241Z,3.00
2019-01-13T00:40:31.681Z,2.50
2019-01-13T00:43:35.085Z,2.37
2019-01-13T00:46:38.513Z,2.80
2019-01-13T00:49:41.969Z,2.40
2019-01-13T00:52:45.596Z,3.00
2019-01-13T00:55:48.997Z,3.00
2019-01-13T00:58:52.471Z,2.87
2019-01-13T01:01:56.097Z,2.60
2019-01-13T01:04:59.821Z,2.90
2019-01-13T01:08:03.392Z,3.00
2019-01-13T01:11:06.793Z,2.90
2019-01-13T01:14:10.257Z,3.67
2019-01-13T01:17:13.737Z,3.70
2019-01-13T01:20:17.741Z,4.03
2019-01-13T01:23:21.555Z,3.73
2019-01-13T01:26:24.979Z,3.13
2019-01-13T01:29:28.393Z,3.53
2019-01-13T01:32:31.850Z,3.53
2019-01-13T01:35:35.293Z,3.83
2019-01-13T01:38:38.719Z,4.20
2019-01-13T01:41:42.152Z,3.87
2019-01-13T01:44:45.593Z,3.57
2019-01-13T01:47:49.049Z,4.30
2019-01-13T01:50:52.493Z,4.20
2019-01-13T01:53:55.926Z,4.30
2019-01-13T01:56:59.330Z,3.87
2019-01-13T02:00:03.649Z,5.13
2019-01-13T02:03:07.078Z,4.10
2019-01-13T02:06:10.571Z,4.37
2019-01-13T02:09:14.012Z,4.73
2019-01-13T02:12:17.516Z,4.23
2019-01-13T02:15:25.467Z,4.63
2019-01-13T02:18:29.049Z,4.40
2019-01-13T02:21:32.457Z,3.70
2019-01-13T02:24:35.894Z,4.80
2019-01-13T02:27:39.321Z,3.80
2019-01-13T02:30:49.120Z,3.80
2019-01-13T02:33:47.882Z,3.30
2019-01-13T02:36:51.301Z,3.67
2019-01-13T02:39:54.742Z,3.07
2019-01-13T02:42:58.152Z,3.93
2019-01-13T02:46:01.580Z,3.60
2019-01-13T02:49:04.993Z,3.50
2019-01-13T02:52:08.425Z,3.27
2019-01-13T02:55:12.001Z,3.53
2019-01-13T02:58:15.437Z,2.73
2019-01-13T03:01:18.921Z,3.10
2019-01-13T03:04:22.353Z,3.20
2019-01-13T03:07:25.786Z,3.60
2019-01-13T03:10:29.204Z,3.57
2019-01-13T03:13:32.629Z,3.80
2019-01-13T03:16:36.050Z,3.73
2019-01-13T03:19:39.500Z,3.60
2019-01-13T03:22:42.969Z,3.67
2019-01-13T03:25:46.417Z,3.63
2019-01-13T03:28:49.821Z,3.70
2019-01-13T03:31:53.267Z,3.13
2019-01-13T03:34:56.678Z,4.03
2019-01-13T03:38:00.121Z,3.73
2019-01-13T03:41:03.600Z,3.87
2019-01-13T03:44:07.032Z,3.23
2019-01-13T03:47:10.438Z,3.23
2019-01-13T03:50:19.205Z,3.67
2019-01-13T03:53:22.649Z,4.10
2019-01-13T03:56:26.057Z,5.03
2019-01-13T03:59:29.497Z,4.03
2019-01-13T04:02:32.924Z,4.63
2019-01-13T04:05:36.347Z,4.63
2019-01-13T04:08:39.789Z,4.47
2019-01-13T04:11:43.225Z,4.53
2019-01-13T04:14:46.636Z,4.30
2019-01-13T04:17:50.239Z,5.17
2019-01-13T04:20:53.646Z,4.73
2019-01-13T04:23:57.140Z,5.07
2019-01-13T04:27:00.552Z,4.60
2019-01-13T04:30:06.995Z,4.83
2019-01-13T04:33:10.405Z,4.90
2019-01-13T04:36:13.842Z,4.97
2019-01-13T04:39:17.276Z,5.23
2019-01-13T04:42:20.685Z,4.93
2019-01-13T04:45:24.177Z,5.70
2019-01-13T04:48:27.590Z,5.23
2019-01-13T04:51:31.028Z,5.57
2019-01-13T04:54:34.456Z,6.17
2019-01-13T04:57:37.877Z,6.03
2019-01-13T05:00:41.313Z,6.00
2019-01-13T05:03:44.744Z,7.03
2019-01-13T05:06:48.159Z,6.00
2019-01-13T05:09:51.595Z,7.00
2019-01-13T05:12:55.016Z,7.20
2019-01-13T05:15:58.457Z,6.77
2019-01-13T05:19:01.894Z,6.47
2019-01-13T05:22:05.343Z,7.13
2019-01-13T05:25:08.993Z,7.83
2019-01-13T05:28:12.399Z,6.80
2019-01-13T05:31:15.846Z,6.43
2019-01-13T05:34:19.251Z,6.53
2019-01-13T05:37:22.682Z,5.60
2019-01-13T05:40:26.144Z,5.83
2019-01-13T05:43:29.554Z,6.60
2019-01-13T05:46:32.986Z,4.53
2019-01-13T05:49:36.394Z,5.20
2019-01-13T05:52:40.783Z,4.50
2019-01-13T05:55:44.216Z,5.03
2019-01-13T05:58:47.629Z,4.57
2019-01-13T06:01:51.064Z,4.23
2019-01-13T06:04:54.476Z,5.47
2019-01-13T06:07:57.906Z,4.40
2019-01-13T06:11:01.316Z,4.70
2019-01-13T06:14:05.005Z,5.23
2019-01-13T06:17:08.444Z,5.53
2019-01-13T06:20:14.766Z,6.30
2019-01-13T06:23:18.192Z,7.33
2019-01-13T06:26:21.629Z,7.23
2019-01-13T06:29:25.042Z,7.50
2019-01-13T06:32:28.470Z,8.27
2019-01-13T06:35:31.920Z,8.20
2019-01-13T06:38:35.353Z,8.47
2019-01-13T06:41:38.766Z,9.57
2019-01-13T06:44:42.213Z,8.87
2019-01-13T06:47:45.633Z,9.57
2019-01-13T06:50:49.073Z,10.10
2019-01-13T06:53:52.529Z,8.00
2019-01-13T06:56:55.941Z,9.93
2019-01-13T06:59:59.392Z,9.47
2019-01-13T07:03:02.792Z,9.80
2019-01-13T07:06:06.236Z,10.93
2019-01-13T07:09:09.654Z,9.90
2019-01-13T07:12:13.088Z,10.50
2019-01-13T07:15:18.245Z,10.87
2019-01-13T07:18:21.672Z,10.43
2019-01-13T07:21:25.105Z,9.70
2019-01-13T07:24:28.549Z,9.93
2019-01-13T07:27:31.972Z,10.43
2019-01-13T07:30:35.392Z,10.53
2019-01-13T07:33:38.851Z,10.57
2019-01-13T07:36:42.439Z,11.97
2019-01-13T07:39:45.853Z,12.43
2019-01-13T07:42:49.297Z,12.83
2019-01-13T07:45:52.713Z,12.47
2019-01-13T07:48:56.231Z,11.73
2019-01-13T07:51:59.653Z,10.77
2019-01-13T07:55:03.089Z,10.60
2019-01-13T07:58:06.509Z,9.70
2019-01-13T08:01:09.957Z,9.20
2019-01-13T08:04:13.369Z,8.30
2019-01-13T08:07:16.825Z,7.97
2019-01-13T08:10:20.229Z,7.87
2019-01-13T08:13:23.675Z,6.97
2019-01-13T08:16:27.090Z,7.10
2019-01-13T08:19:30.542Z,8.83
2019-01-13T08:22:33.948Z,6.67
2019-01-13T08:25:37.432Z,5.80
2019-01-13T08:28:40.842Z,6.90
2019-01-13T08:31:44.285Z,5.67
2019-01-13T08:34:47.693Z,6.37
2019-01-13T08:37:51.169Z,6.30
2019-01-13T08:40:54.580Z,5.93
2019-01-13T08:43:58.037Z,5.33
2019-01-13T08:47:01.456Z,5.30
2019-01-13T08:50:11.181Z,5.33
2019-01-13T08:53:14.621Z,5.77
2019-01-13T08:56:18.288Z,5.77
2019-01-13T08:59:21.819Z,4.93
2019-01-13T09:02:32.021Z,4.87
2019-01-13T09:05:30.412Z,4.37
2019-01-13T09:08:33.824Z,4.33
2019-01-13T09:11:37.273Z,4.27
2019-01-13T09:14:40.681Z,3.93
2019-01-13T09:17:44.128Z,4.00
2019-01-13T09:20:47.563Z,3.60
2019-01-13T09:23:50.977Z,3.10
2019-01-13T09:26:54.425Z,2.77
2019-01-13T09:29:57.839Z,2.90
2019-01-13T09:33:01.284Z,2.80
2019-01-13T09:36:04.861Z,2.60
2019-01-13T09:39:08.384Z,2.73
2019-01-13T09:42:11.797Z,2.90
2019-01-13T09:45:15.252Z,2.53
2019-01-13T09:48:18.669Z,2.50
2019-01-13T09:51:22.096Z,2.53
2019-01-13T09:54:25.517Z,2.33
2019-01-13T09:57:28.954Z,2.10
2019-01-13T10:00:33.906Z,2.30
2019-01-13T10:03:37.350Z,2.83
2019-01-13T10:06:40.796Z,2.20
2019-01-13T10:09:44.209Z,2.60
2019-01-13T10:12:47.648Z,2.30
2019-01-13T10:15:51.064Z,3.00
2019-01-13T10:18:54.512Z,2.93
2019-01-13T10:21:57.916Z,3.10
2019-01-13T10:25:03.704Z,2.80
2019-01-13T10:28:07.200Z,3.53
2019-01-13T10:31:10.705Z,3.40
2019-01-13T10:34:14.119Z,2.97
2019-01-13T10:37:17.542Z,3.60
2019-01-13T10:40:23.091Z,3.60
2019-01-13T10:43:26.524Z,3.73
2019-01-13T10:46:30.004Z,3.80
2019-01-13T10:49:33.462Z,3.03
2019-01-13T10:52:36.869Z,3.60
2019-01-13T10:55:40.306Z,4.20
2019-01-13T10:58:43.713Z,4.97
2019-01-13T11:01:47.156Z,5.33
2019-01-13T11:04:50.565Z,4.30
2019-01-13T11:07:54.465Z,4.67
2019-01-13T11:10:57.880Z,4.47
2019-01-13T11:14:01.336Z,3.80
2019-01-13T11:17:04.804Z,5.00
2019-01-13T11:20:14.131Z,4.30
2019-01-13T11:23:17.548Z,4.80
2019-01-13T11:26:20.999Z,4.47
2019-01-13T11:29:24.410Z,4.13
2019-01-13T11:32:27.845Z,4.67
2019-01-13T11:35:31.256Z,4.07
2019-01-13T11:38:34.711Z,3.63
2019-01-13T11:41:38.132Z,3.93
2019-01-13T11:44:41.565Z,4.20
2019-01-13T11:47:45.004Z,3.20
2019-01-13T11:50:48.413Z,3.77
2019-01-13T11:53:51.860Z,3.97
2019-01-13T11:56:55.274Z,3.70
2019-01-13T11:59:58.710Z,4.03
2019-01-13T12:03:06.570Z,4.87
2019-01-13T12:06:07.282Z,5.50
2019-01-13T12:09:10.793Z,7.37
2019-01-13T12:12:15.742Z,5.87
2019-01-13T12:15:20.717Z,3.90
2019-01-13T12:18:24.139Z,4.10
2019-01-13T12:21:27.664Z,3.60
2019-01-13T12:24:31.060Z,3.20
2019-01-13T12:27:35.508Z,2.73
2019-01-13T12:30:38.918Z,2.73
2019-01-13T12:33:42.353Z,2.77
2019-01-13T12:36:45.769Z,2.80
2019-01-13T12:39:49.216Z,2.13
2019-01-13T12:42:53.638Z,2.30
2019-01-13T12:45:57.088Z,2.67
2019-01-13T12:49:00.492Z,2.60
2019-01-13T12:52:04.008Z,2.40
2019-01-13T12:55:07.592Z,2.23
2019-01-13T12:58:11.102Z,2.00
2019-01-13T13:01:16.497Z,2.00
2019-01-13T13:04:19.688Z,1.93
2019-01-13T13:07:23.112Z,1.70
2019-01-13T13:10:32.238Z,1.60
2019-01-13T13:13:35.645Z,1.87
2019-01-13T13:16:39.072Z,1.60
2019-01-13T13:19:42.497Z,1.63
2019-01-13T13:22:45.996Z,1.40
2019-01-13T13:25:49.444Z,1.50
2019-01-13T13:28:52.849Z,1.50
2019-01-13T13:31:56.318Z,1.43
2019-01-13T13:34:59.833Z,1.47
2019-01-13T13:38:03.281Z,1.40
2019-01-13T13:41:06.689Z,1.30
2019-01-13T13:44:10.133Z,1.73
2019-01-13T13:47:13.540Z,1.53
2019-01-13T13:50:22.574Z,1.20
2019-01-13T13:53:25.989Z,1.40
2019-01-13T13:56:29.497Z,1.40
2019-01-13T13:59:32.904Z,1.10
2019-01-13T14:02:36.350Z,1.17
2019-01-13T14:05:42.516Z,1.20
2019-01-13T14:08:45.960Z,1.43
2019-01-13T14:11:49.369Z,1.60
2019-01-13T14:14:52.790Z,1.50
2019-01-13T14:17:56.199Z,1.30
2019-01-13T14:20:59.636Z,1.13
2019-01-13T14:24:03.067Z,1.50
2019-01-13T14:27:06.468Z,1.40
2019-01-13T14:30:18.897Z,1.50
2019-01-13T14:33:23.224Z,1.47
2019-01-13T14:36:26.678Z,1.73
2019-01-13T14:39:30.093Z,1.37
2019-01-13T14:42:33.536Z,1.47
2019-01-13T14:45:37.017Z,1.50
2019-01-13T14:48:40.452Z,1.70
2019-01-13T14:51:43.894Z,1.40
2019-01-13T14:54:47.301Z,1.60
2019-01-13T14:57:50.828Z,2.03
2019-01-13T15:00:54.337Z,1.50
2019-01-13T15:03:59.981Z,1.40
2019-01-13T15:07:02.906Z,1.60
2019-01-13T15:10:09.446Z,1.83
2019-01-13T15:13:12.860Z,1.40
2019-01-13T15:16:16.301Z,1.50
2019-01-13T15:19:19.707Z,1.70
2019-01-13T15:22:23.157Z,1.90
2019-01-13T15:25:28.545Z,1.60
2019-01-13T15:28:31.977Z,1.47
2019-01-13T15:31:35.409Z,1.90
2019-01-13T15:34:38.832Z,1.77
2019-01-13T15:37:42.249Z,1.53
2019-01-13T15:40:45.689Z,1.60
2019-01-13T15:43:49.116Z,1.40
2019-01-13T15:46:52.536Z,1.60
2019-01-13T15:49:55.965Z,1.60
2019-01-13T15:52:59.380Z,1.90
2019-01-13T15:56:02.829Z,1.70
2019-01-13T15:59:06.236Z,1.70
2019-01-13T16:02:09.680Z,2.07
2019-01-13T16:05:13.116Z,1.80
2019-01-13T16:08:16.521Z,1.80
2019-01-13T16:11:19.944Z,2.03
2019-01-13T16:14:23.359Z,1.90
2019-01-13T16:17:26.795Z,1.60
2019-01-13T16:20:36.491Z,2.07
2019-01-13T16:23:39.952Z,1.90
2019-01-13T16:26:43.380Z,1.77
2019-01-13T16:29:47.769Z,2.00
2019-01-13T16:32:51.188Z,2.10
2019-01-13T16:35:54.620Z,2.17
2019-01-13T16:38:58.037Z,2.10
2019-01-13T16:42:01.468Z,2.20
2019-01-13T16:45:08.244Z,2.10
2019-01-13T16:48:11.653Z,1.60
2019-01-13T16:51:15.127Z,1.97
2019-01-13T16:54:18.572Z,2.53
2019-01-13T16:57:22.004Z,1.50
2019-01-13T17:00:27.377Z,1.53
2019-01-13T17:03:30.817Z,1.83
2019-01-13T17:06:35.232Z,1.20
2019-01-13T17:09:38.662Z,2.10
2019-01-13T17:12:42.096Z,2.00
2019-01-13T17:15:45.509Z,2.00
2019-01-13T17:18:48.937Z,1.50
2019-01-13T17:21:52.345Z,1.70
2019-01-13T17:24:55.781Z,1.93
2019-01-13T17:27:59.197Z,1.90
2019-01-13T17:31:02.632Z,1.83
2019-01-13T17:34:06.045Z,2.27
2019-01-13T17:37:09.476Z,2.30
2019-01-13T17:40:18.025Z,2.47
2019-01-13T17:43:21.476Z,2.20
2019-01-13T17:46:24.956Z,2.60
2019-01-13T17:49:28.392Z,3.10
2019-01-13T17:52:31.809Z,2.60
2019-01-13T17:55:35.245Z,2.47
2019-01-13T17:58:38.661Z,2.67
2019-01-13T18:01:42.168Z,2.17
2019-01-13T18:04:45.604Z,2.13
2019-01-13T18:07:49.008Z,2.10
2019-01-13T18:10:52.457Z,2.37
2019-01-13T18:13:55.872Z,2.57
2019-01-13T18:17:06.220Z,2.40
2019-01-13T18:20:10.493Z,2.23
2019-01-13T18:23:13.933Z,1.90
2019-01-13T18:26:17.359Z,1.17
2019-01-13T18:29:20.785Z,1.20
2019-01-13T18:32:24.333Z,1.50
2019-01-13T18:35:27.741Z,1.63
2019-01-13T18:38:31.177Z,1.67
2019-01-13T18:41:34.588Z,1.60
2019-01-13T18:44:38.024Z,2.10
2019-01-13T18:47:41.453Z,1.70
2019-01-13T18:50:44.885Z,1.60
2019-01-13T18:53:48.322Z,1.67
2019-01-13T18:56:51.749Z,1.70
2019-01-13T18:59:55.176Z,1.77
2019-01-13T19:02:58.625Z,1.40
2019-01-13T19:06:02.056Z,1.70
2019-01-13T19:09:09.260Z,2.00
2019-01-13T19:12:12.693Z,1.43
2019-01-13T19:15:16.101Z,1.60
2019-01-13T19:18:19.537Z,1.83
2019-01-13T19:21:22.953Z,1.70
2019-01-13T19:24:26.390Z,2.13
2019-01-13T19:27:29.842Z,1.77
2019-01-13T19:30:34.200Z,2.37
2019-01-13T19:33:37.661Z,2.30
2019-01-13T19:36:41.080Z,1.90
2019-01-13T19:39:44.526Z,1.70
2019-01-13T19:42:47.972Z,2.00
2019-01-13T19:45:51.402Z,2.10
2019-01-13T19:48:54.828Z,1.80
2019-01-13T19:51:58.269Z,1.90
2019-01-13T19:55:01.692Z,1.80
2019-01-13T19:58:05.284Z,2.07
2019-01-13T20:01:08.708Z,1.80
2019-01-13T20:04:12.131Z,2.07
2019-01-13T20:07:15.600Z,2.80
2019-01-13T20:10:19.017Z,2.37
2019-01-13T20:13:22.448Z,2.00
2019-01-13T20:16:25.881Z,2.10
2019-01-13T20:19:29.302Z,1.87
2019-01-13T20:22:32.733Z,2.40
2019-01-13T20:25:36.169Z,2.57
2019-01-13T20:28:39.721Z,2.17
2019-01-13T20:31:43.137Z,2.70
2019-01-13T20:34:46.595Z,1.97
2019-01-13T20:37:49.999Z,2.43
2019-01-13T20:40:53.443Z,2.37
2019-01-13T20:43:56.853Z,1.70
2019-01-13T20:47:00.290Z,1.80
2019-01-13T20:50:05.272Z,2.17
2019-01-13T20:53:08.775Z,2.00
2019-01-13T20:56:12.184Z,1.80
2019-01-13T20:59:15.624Z,2.13
2019-01-13T21:02:19.037Z,2.87
2019-01-13T21:05:26.518Z,2.37
2019-01-13T21:08:27.762Z,2.23
2019-01-13T21:11:31.172Z,2.00
2019-01-13T21:14:34.596Z,2.30
2019-01-13T21:17:38.016Z,2.63
2019-01-13T21:20:41.464Z,2.47
2019-01-13T21:23:44.901Z,3.07
2019-01-13T21:26:48.333Z,4.20
2019-01-13T21:29:51.778Z,2.90
2019-01-13T21:32:55.249Z,3.13
2019-01-13T21:35:58.684Z,2.93
2019-01-13T21:39:02.205Z,2.57
2019-01-13T21:42:06.580Z,3.00
2019-01-13T21:45:15.720Z,2.47
2019-01-13T21:48:19.139Z,2.30
2019-01-13T21:51:22.568Z,2.10
2019-01-13T21:54:25.992Z,2.50
2019-01-13T21:57:29.414Z,2.00
2019-01-13T22:00:32.842Z,2.53
2019-01-13T22:03:36.282Z,2.07
2019-01-13T22:06:39.798Z,2.63
2019-01-13T22:09:43.206Z,2.07
2019-01-13T22:12:46.812Z,2.70
2019-01-13T22:15:50.225Z,2.50
2019-01-13T22:18:53.712Z,2.63
2019-01-13T22:21:57.129Z,2.27
2019-01-13T22:25:00.577Z,2.17
2019-01-13T22:28:04.049Z,1.87
2019-01-13T22:31:08.471Z,2.23
2019-01-13T22:34:11.868Z,2.17
2019-01-13T22:37:15.301Z,2.00
2019-01-13T22:40:19.220Z,2.47
2019-01-13T22:43:22.697Z,2.60
2019-01-13T22:46:26.137Z,2.27
2019-01-13T22:49:29.538Z,2.30
2019-01-13T22:52:33.057Z,2.97
2019-01-13T22:55:36.636Z,2.00
2019-01-13T22:58:40.158Z,2.53
2019-01-13T23:01:43.646Z,1.90
2019-01-13T23:04:47.073Z,2.03
2019-01-13T23:07:50.490Z,2.50
2019-01-13T23:10:53.933Z,2.47
2019-01-13T23:13:57.349Z,2.00
2019-01-13T23:17:00.796Z,2.30
2019-01-13T23:20:06.835Z,2.57
2019-01-13T23:23:10.361Z,2.20
2019-01-13T23:26:13.769Z,2.43
2019-01-13T23:29:17.197Z,2.37
2019-01-13T23:32:20.641Z,2.37
2019-01-13T23:35:24.052Z,2.30
2019-01-13T23:38:27.503Z,2.37
2019-01-13T23:41:30.912Z,2.30
2019-01-13T23:44:34.352Z,2.30
2019-01-13T23:47:37.773Z,2.50
2019-01-13T23:50:41.203Z,2.90
2019-01-13T23:53:44.612Z,3.00
2019-01-13T23:56:48.056Z,2.77
2019-01-13T23:59:51.472Z,2.70
